createdAt,value
2023-05-09T00:01:07.553Z,45.47
2023-05-09T00:04:09.269Z,45.67
2023-05-09T00:07:10.802Z,45.55
2023-05-09T00:10:12.403Z,45.66
2023-05-09T00:13:14.069Z,45.28
2023-05-09T00:16:16.129Z,45.40
2023-05-09T00:19:17.856Z,45.58
2023-05-09T00:22:23.826Z,45.71
2023-05-09T00:25:25.463Z,45.44
2023-05-09T00:28:27.559Z,45.38
2023-05-09T00:31:29.164Z,45.37
2023-05-09T00:34:30.747Z,45.52
2023-05-09T00:37:32.305Z,45.76
2023-05-09T00:40:33.834Z,45.42
2023-05-09T00:43:35.755Z,45.37
2023-05-09T00:46:37.340Z,45.35
2023-05-09T00:49:39.035Z,45.37
2023-05-09T00:52:41.602Z,45.57
2023-05-09T00:55:43.166Z,45.74
2023-05-09T00:58:45.289Z,45.53
2023-05-09T01:01:47.032Z,45.69
2023-05-09T01:04:48.715Z,45.57
2023-05-09T01:07:57.277Z,45.45
2023-05-09T01:11:09.469Z,45.38
2023-05-09T01:14:41.915Z,45.42
2023-05-09T01:18:03.827Z,45.59
2023-05-09T01:21:08.924Z,45.65
2023-05-09T01:24:26.307Z,45.63
2023-05-09T01:27:27.811Z,45.42
2023-05-09T01:30:31.394Z,45.58
2023-05-09T01:33:36.456Z,45.53
2023-05-09T01:36:42.349Z,45.63
2023-05-09T01:39:49.249Z,45.53
2023-05-09T01:43:00.055Z,45.77
2023-05-09T01:46:04.154Z,45.85
2023-05-09T01:49:08.509Z,45.74
2023-05-09T01:52:16.935Z,45.69
2023-05-09T01:55:20.033Z,45.88
2023-05-09T01:58:22.503Z,45.77
2023-05-09T02:01:24.693Z,45.84
2023-05-09T02:04:28.451Z,45.96
2023-05-09T02:07:30.442Z,45.77
2023-05-09T02:10:33.475Z,45.77
2023-05-09T02:13:35.186Z,45.92
2023-05-09T02:16:39.521Z,45.85
2023-05-09T02:19:41.091Z,45.89
2023-05-09T02:22:43.502Z,45.85
2023-05-09T02:25:46.460Z,45.80
2023-05-09T02:28:48.634Z,45.83
2023-05-09T02:31:51.717Z,45.76
2023-05-09T02:34:54.588Z,45.65
2023-05-09T02:37:58.668Z,45.80
2023-05-09T02:41:00.282Z,45.80
2023-05-09T02:44:01.819Z,45.78
2023-05-09T02:47:06.375Z,45.86
2023-05-09T02:50:08.420Z,45.80
2023-05-09T02:53:10.135Z,45.82
2023-05-09T02:56:11.731Z,45.86
2023-05-09T02:59:13.454Z,45.83
2023-05-09T03:02:15.202Z,45.86
2023-05-09T03:05:17.702Z,45.92
2023-05-09T03:08:19.290Z,45.96
2023-05-09T03:11:21.027Z,45.91
2023-05-09T03:14:22.707Z,45.99
2023-05-09T03:17:24.269Z,45.99
2023-05-09T03:20:27.498Z,46.00
2023-05-09T03:23:29.050Z,45.92
2023-05-09T03:26:30.799Z,45.96
2023-05-09T03:29:32.394Z,45.92
2023-05-09T03:32:34.031Z,45.91
2023-05-09T03:35:35.578Z,45.97
2023-05-09T03:38:37.205Z,46.09
2023-05-09T03:41:38.830Z,45.99
2023-05-09T03:44:40.446Z,45.86
2023-05-09T03:47:42.098Z,45.85
2023-05-09T03:50:43.755Z,45.94
2023-05-09T03:53:48.328Z,46.08
2023-05-09T03:56:49.882Z,46.08
2023-05-09T03:59:51.426Z,46.12
2023-05-09T04:02:53.653Z,46.11
2023-05-09T04:05:55.552Z,46.05
2023-05-09T04:08:57.194Z,46.17
2023-05-09T04:11:58.724Z,46.04
2023-05-09T04:15:00.454Z,46.11
2023-05-09T04:18:02.079Z,46.09
2023-05-09T04:21:03.794Z,46.03
2023-05-09T04:24:05.879Z,46.00
2023-05-09T04:27:07.988Z,46.07
2023-05-09T04:30:10.429Z,46.08
2023-05-09T04:33:12.038Z,46.01
2023-05-09T04:36:13.610Z,46.05
2023-05-09T04:39:15.126Z,46.00
2023-05-09T04:42:16.846Z,46.07
2023-05-09T04:45:18.462Z,45.96
2023-05-09T04:48:20.009Z,46.08
2023-05-09T04:51:21.545Z,46.05
2023-05-09T04:54:23.109Z,45.97
2023-05-09T04:57:24.627Z,45.96
2023-05-09T05:00:26.189Z,46.13
2023-05-09T05:03:27.734Z,45.97
2023-05-09T05:06:29.320Z,46.07
2023-05-09T05:09:31.212Z,46.00
2023-05-09T05:12:32.780Z,45.96
2023-05-09T05:15:34.329Z,46.01
2023-05-09T05:18:36.016Z,45.96
2023-05-09T05:21:37.701Z,45.78
2023-05-09T05:24:39.265Z,45.88
2023-05-09T05:27:40.967Z,45.90
2023-05-09T05:30:42.561Z,45.96
2023-05-09T05:33:44.059Z,45.99
2023-05-09T05:36:45.773Z,46.08
2023-05-09T05:39:47.298Z,46.00
2023-05-09T05:42:48.924Z,46.05
2023-05-09T05:45:51.112Z,46.08
2023-05-09T05:48:52.720Z,46.12
2023-05-09T05:51:54.307Z,45.84
2023-05-09T05:54:56.306Z,45.98
2023-05-09T05:57:57.845Z,45.94
2023-05-09T06:00:59.440Z,45.93
2023-05-09T06:04:01.073Z,45.95
2023-05-09T06:07:02.727Z,45.86
2023-05-09T06:10:04.709Z,45.93
2023-05-09T06:13:06.492Z,46.13
2023-05-09T06:16:18.715Z,46.06
2023-05-09T06:19:21.764Z,45.98
2023-05-09T06:22:23.388Z,46.10
2023-05-09T06:25:24.935Z,45.90
2023-05-09T06:28:26.981Z,45.80
2023-05-09T06:31:28.760Z,46.04
2023-05-09T06:34:30.370Z,45.90
2023-05-09T06:37:35.035Z,45.77
2023-05-09T06:40:36.871Z,45.86
2023-05-09T06:43:38.482Z,45.76
2023-05-09T06:46:40.131Z,45.95
2023-05-09T06:49:41.775Z,45.50
2023-05-09T06:52:43.330Z,45.92
2023-05-09T06:55:45.066Z,45.70
2023-05-09T06:58:46.830Z,45.73
2023-05-09T07:01:48.448Z,45.59
2023-05-09T07:04:50.153Z,45.87
2023-05-09T07:07:51.807Z,45.42
2023-05-09T07:10:53.496Z,45.58
2023-05-09T07:13:55.102Z,45.46
2023-05-09T07:17:09.831Z,45.50
2023-05-09T07:20:15.790Z,45.38
2023-05-09T07:23:17.342Z,45.45
2023-05-09T07:26:18.956Z,45.77
2023-05-09T07:29:20.897Z,45.41
2023-05-09T07:32:22.455Z,45.31
2023-05-09T07:35:24.050Z,45.27
2023-05-09T07:38:25.626Z,45.31
2023-05-09T07:41:27.170Z,45.42
2023-05-09T07:44:28.751Z,45.32
2023-05-09T07:47:30.309Z,45.33
2023-05-09T07:50:32.005Z,45.42
2023-05-09T07:53:33.615Z,45.38
2023-05-09T07:56:35.292Z,45.31
2023-05-09T07:59:37.063Z,45.40
2023-05-09T08:02:38.800Z,45.36
2023-05-09T08:05:40.812Z,45.41
2023-05-09T08:08:42.420Z,45.47
2023-05-09T08:11:44.640Z,45.39
2023-05-09T08:14:47.150Z,45.46
2023-05-09T08:17:48.777Z,45.55
2023-05-09T08:20:51.053Z,45.55
2023-05-09T08:23:53.235Z,45.28
2023-05-09T08:26:54.814Z,45.47
2023-05-09T08:29:56.353Z,45.29
2023-05-09T08:32:58.286Z,45.33
2023-05-09T08:36:00.282Z,45.42
2023-05-09T08:39:02.341Z,45.40
2023-05-09T08:42:04.089Z,45.39
2023-05-09T08:45:16.790Z,45.33
2023-05-09T08:48:19.281Z,45.34
2023-05-09T08:51:21.548Z,45.33
2023-05-09T08:54:23.960Z,45.20
2023-05-09T08:57:27.345Z,45.32
2023-05-09T09:00:29.847Z,45.10
2023-05-09T09:03:32.117Z,45.24
2023-05-09T09:06:35.331Z,45.24
2023-05-09T09:09:37.542Z,45.03
2023-05-09T09:12:40.087Z,45.21
2023-05-09T09:15:43.948Z,45.27
2023-05-09T09:18:46.546Z,44.90
2023-05-09T09:21:49.846Z,45.27
2023-05-09T09:24:51.564Z,45.04
2023-05-09T09:27:53.120Z,45.06
2023-05-09T09:30:54.713Z,44.87
2023-05-09T09:34:01.285Z,44.64
2023-05-09T09:37:02.876Z,44.65
2023-05-09T09:40:08.620Z,44.56
2023-05-09T09:43:10.156Z,44.75
2023-05-09T09:46:14.227Z,44.51
2023-05-09T09:49:26.626Z,44.61
2023-05-09T09:52:28.176Z,44.26
2023-05-09T09:55:30.025Z,44.75
2023-05-09T09:58:31.577Z,44.44
2023-05-09T10:01:33.173Z,44.36
2023-05-09T10:04:39.412Z,44.40
2023-05-09T10:07:41.016Z,44.66
2023-05-09T10:10:42.777Z,44.09
2023-05-09T10:13:45.931Z,44.27
2023-05-09T10:16:52.290Z,44.31
2023-05-09T10:19:55.492Z,44.22
2023-05-09T10:23:02.284Z,44.44
2023-05-09T10:26:27.595Z,44.03
2023-05-09T10:29:31.911Z,43.94
2023-05-09T10:32:51.810Z,44.30
2023-05-09T10:35:56.336Z,43.85
2023-05-09T10:38:58.447Z,44.35
2023-05-09T10:42:00.786Z,44.11
2023-05-09T10:45:03.144Z,44.17
2023-05-09T10:48:08.763Z,44.05
2023-05-09T10:51:11.354Z,43.71
2023-05-09T10:54:30.090Z,43.77
2023-05-09T10:57:32.569Z,44.10
2023-05-09T11:00:34.154Z,43.68
2023-05-09T11:03:58.688Z,43.99
2023-05-09T11:07:00.866Z,43.62
2023-05-09T11:10:10.557Z,43.53
2023-05-09T11:13:12.200Z,43.64
2023-05-09T11:16:13.874Z,43.73
2023-05-09T11:19:34.122Z,43.49
2023-05-09T11:22:41.399Z,43.25
2023-05-09T11:25:46.811Z,43.24
2023-05-09T11:28:54.678Z,43.46
2023-05-09T11:32:07.289Z,43.12
2023-05-09T11:35:10.359Z,43.23
2023-05-09T11:38:21.342Z,42.95
2023-05-09T11:41:23.029Z,42.94
2023-05-09T11:44:25.100Z,43.15
2023-05-09T11:47:28.920Z,43.15
2023-05-09T11:50:30.655Z,43.18
2023-05-09T11:53:32.385Z,42.90
2023-05-09T11:56:39.886Z,42.97
2023-05-09T11:59:41.477Z,43.05
2023-05-09T12:02:45.875Z,42.88
2023-05-09T12:05:51.050Z,42.76
2023-05-09T12:08:55.152Z,42.59
2023-05-09T12:11:56.672Z,42.73
2023-05-09T12:15:04.558Z,42.61
2023-05-09T12:18:08.549Z,42.46
2023-05-09T12:21:10.637Z,42.50
2023-05-09T12:24:12.231Z,42.37
2023-05-09T12:27:13.823Z,42.27
2023-05-09T12:30:16.224Z,42.38
2023-05-09T12:33:18.624Z,42.13
2023-05-09T12:36:20.192Z,42.14
2023-05-09T12:39:23.084Z,42.16
2023-05-09T12:42:28.079Z,42.26
2023-05-09T12:45:32.969Z,42.19
2023-05-09T12:48:37.964Z,42.17
2023-05-09T12:51:51.264Z,41.99
2023-05-09T12:54:53.748Z,42.11
2023-05-09T12:58:03.404Z,41.72
2023-05-09T13:01:05.738Z,41.94
2023-05-09T13:04:07.782Z,41.90
2023-05-09T13:07:13.091Z,41.83
2023-05-09T13:10:18.499Z,41.84
2023-05-09T13:13:21.788Z,41.71
2023-05-09T13:16:23.825Z,41.91
2023-05-09T13:19:25.492Z,41.78
2023-05-09T13:22:27.333Z,41.74
2023-05-09T13:25:28.988Z,41.80
2023-05-09T13:28:30.747Z,41.63
2023-05-09T13:31:32.367Z,41.77
2023-05-09T13:34:33.891Z,41.71
2023-05-09T13:37:35.921Z,41.71
2023-05-09T13:40:38.003Z,41.48
2023-05-09T13:43:42.609Z,41.65
2023-05-09T13:46:45.963Z,41.67
2023-05-09T13:49:47.752Z,41.62
2023-05-09T13:52:50.184Z,41.89
2023-05-09T13:55:52.090Z,41.57
2023-05-09T13:58:53.802Z,41.62
2023-05-09T14:01:57.512Z,41.34
2023-05-09T14:04:59.154Z,41.60
2023-05-09T14:08:01.700Z,41.60
2023-05-09T14:11:03.357Z,41.61
2023-05-09T14:14:04.906Z,41.51
2023-05-09T14:17:06.554Z,41.62
2023-05-09T14:20:08.781Z,41.65
2023-05-09T14:23:10.461Z,41.46
2023-05-09T14:26:12.196Z,41.59
2023-05-09T14:29:13.763Z,41.51
2023-05-09T14:32:15.332Z,41.57
2023-05-09T14:35:17.232Z,41.62
2023-05-09T14:38:18.995Z,41.46
2023-05-09T14:41:21.493Z,41.61
2023-05-09T14:44:24.998Z,41.45
2023-05-09T14:47:26.600Z,41.42
2023-05-09T14:50:28.244Z,41.45
2023-05-09T14:53:30.065Z,41.09
2023-05-09T14:56:31.658Z,41.62
2023-05-09T14:59:36.137Z,41.53
2023-05-09T15:02:40.019Z,41.36
2023-05-09T15:05:42.069Z,41.39
2023-05-09T15:08:43.653Z,41.43
2023-05-09T15:11:48.837Z,41.54
2023-05-09T15:14:53.930Z,41.34
2023-05-09T15:17:55.534Z,41.24
2023-05-09T15:20:57.469Z,41.33
2023-05-09T15:23:59.409Z,41.05
2023-05-09T15:27:00.971Z,41.43
2023-05-09T15:30:03.062Z,41.42
2023-05-09T15:33:04.683Z,41.35
2023-05-09T15:36:06.950Z,41.24
2023-05-09T15:39:08.957Z,41.34
2023-05-09T15:42:12.335Z,41.19
2023-05-09T15:45:14.256Z,41.31
2023-05-09T15:48:16.360Z,41.27
2023-05-09T15:51:18.065Z,41.33
2023-05-09T15:54:20.300Z,41.09
2023-05-09T15:57:22.150Z,41.24
2023-05-09T16:00:23.778Z,41.05
2023-05-09T16:03:25.568Z,41.13
2023-05-09T16:06:28.609Z,41.20
2023-05-09T16:09:30.241Z,41.04
2023-05-09T16:12:32.944Z,41.18
2023-05-09T16:15:35.320Z,41.19
2023-05-09T16:18:36.982Z,41.30
2023-05-09T16:21:39.336Z,41.27
2023-05-09T16:24:40.898Z,41.10
2023-05-09T16:27:42.649Z,41.22
2023-05-09T16:30:44.298Z,41.22
2023-05-09T16:33:47.144Z,41.18
2023-05-09T16:36:48.739Z,41.13
2023-05-09T16:39:50.391Z,41.01
2023-05-09T16:42:53.354Z,40.96
2023-05-09T16:45:55.394Z,41.42
2023-05-09T16:48:57.033Z,41.18
2023-05-09T16:51:59.427Z,40.98
2023-05-09T16:55:01.153Z,40.97
2023-05-09T16:58:02.869Z,41.20
2023-05-09T17:01:04.539Z,41.04
2023-05-09T17:04:06.941Z,41.22
2023-05-09T17:07:09.169Z,41.14
2023-05-09T17:10:11.460Z,41.12
2023-05-09T17:13:13.053Z,41.09
2023-05-09T17:16:14.711Z,41.32
2023-05-09T17:19:16.976Z,40.90
2023-05-09T17:22:18.536Z,41.04
2023-05-09T17:25:20.118Z,41.07
2023-05-09T17:28:21.720Z,40.92
2023-05-09T17:31:23.424Z,41.29
2023-05-09T17:34:24.999Z,41.42
2023-05-09T17:37:26.563Z,41.10
2023-05-09T17:40:28.755Z,41.20
2023-05-09T17:43:30.936Z,41.08
2023-05-09T17:46:32.838Z,41.61
2023-05-09T17:49:34.398Z,41.35
2023-05-09T17:52:37.037Z,41.75
2023-05-09T17:55:39.127Z,41.88
2023-05-09T17:58:41.079Z,41.67
2023-05-09T18:01:42.727Z,41.98
2023-05-09T18:04:46.362Z,42.09
2023-05-09T18:07:47.998Z,42.00
2023-05-09T18:10:49.808Z,41.89
2023-05-09T18:13:51.444Z,42.00
2023-05-09T18:16:53.041Z,42.34
2023-05-09T18:19:54.700Z,42.47
2023-05-09T18:22:57.216Z,42.53
2023-05-09T18:25:58.841Z,42.64
2023-05-09T18:29:00.480Z,42.86
2023-05-09T18:32:02.197Z,42.48
2023-05-09T18:35:04.224Z,42.93
2023-05-09T18:38:05.779Z,42.76
2023-05-09T18:41:09.055Z,42.59
2023-05-09T18:44:10.781Z,42.70
2023-05-09T18:47:12.546Z,42.68
2023-05-09T18:50:14.594Z,43.13
2023-05-09T18:53:16.397Z,43.08
2023-05-09T18:56:20.484Z,42.95
2023-05-09T18:59:23.559Z,42.94
2023-05-09T19:02:25.449Z,43.43
2023-05-09T19:05:27.554Z,43.46
2023-05-09T19:08:29.276Z,42.95
2023-05-09T19:11:30.886Z,43.34
2023-05-09T19:14:32.581Z,43.47
2023-05-09T19:17:34.618Z,43.86
2023-05-09T19:20:36.885Z,43.58
2023-05-09T19:23:39.110Z,43.49
2023-05-09T19:26:40.829Z,43.69
2023-05-09T19:29:42.384Z,44.08
2023-05-09T19:32:44.609Z,43.95
2023-05-09T19:35:46.236Z,44.00
2023-05-09T19:38:47.762Z,43.92
2023-05-09T19:41:49.318Z,43.98
2023-05-09T19:44:52.412Z,44.32
2023-05-09T19:47:54.812Z,44.08
2023-05-09T19:51:00.827Z,44.33
2023-05-09T19:54:03.512Z,44.16
2023-05-09T19:57:06.500Z,44.25
2023-05-09T20:00:08.873Z,44.52
2023-05-09T20:03:10.754Z,44.54
2023-05-09T20:06:15.644Z,44.38
2023-05-09T20:09:20.937Z,44.71
2023-05-09T20:12:22.535Z,44.79
2023-05-09T20:15:24.235Z,44.59
2023-05-09T20:18:26.851Z,44.57
2023-05-09T20:21:28.448Z,44.48
2023-05-09T20:24:33.427Z,44.77
2023-05-09T20:27:37.365Z,44.98
2023-05-09T20:30:38.935Z,45.02
2023-05-09T20:33:41.169Z,45.05
2023-05-09T20:36:43.252Z,44.98
2023-05-09T20:39:45.151Z,45.09
2023-05-09T20:42:47.195Z,45.02
2023-05-09T20:45:49.124Z,45.21
2023-05-09T20:48:50.650Z,45.36
2023-05-09T20:51:52.240Z,45.50
2023-05-09T20:54:53.794Z,45.52
2023-05-09T20:57:55.431Z,45.76
2023-05-09T21:00:57.278Z,45.75
2023-05-09T21:03:59.377Z,45.69
2023-05-09T21:07:00.956Z,45.99
2023-05-09T21:10:02.735Z,46.10
2023-05-09T21:13:04.754Z,46.11
2023-05-09T21:16:06.404Z,46.43
2023-05-09T21:19:08.801Z,46.16
2023-05-09T21:22:10.442Z,45.87
2023-05-09T21:25:12.535Z,45.96
2023-05-09T21:28:15.568Z,46.11
2023-05-09T21:31:17.199Z,46.01
2023-05-09T21:34:18.829Z,46.04
2023-05-09T21:37:20.599Z,46.09
2023-05-09T21:40:22.143Z,46.13
2023-05-09T21:43:24.222Z,46.07
2023-05-09T21:46:25.924Z,46.31
2023-05-09T21:49:29.217Z,46.22
2023-05-09T21:52:30.741Z,46.35
2023-05-09T21:55:32.284Z,46.07
2023-05-09T21:58:34.134Z,46.37
2023-05-09T22:01:35.699Z,46.35
2023-05-09T22:04:37.322Z,46.54
2023-05-09T22:07:39.064Z,46.29
2023-05-09T22:10:40.949Z,46.49
2023-05-09T22:13:42.558Z,46.64
2023-05-09T22:16:44.333Z,46.43
2023-05-09T22:19:46.041Z,46.69
2023-05-09T22:22:47.617Z,46.40
2023-05-09T22:25:49.171Z,46.50
2023-05-09T22:28:51.522Z,46.45
2023-05-09T22:31:54.554Z,46.84
2023-05-09T22:34:56.900Z,46.74
2023-05-09T22:37:58.430Z,46.89
2023-05-09T22:40:59.975Z,47.04
2023-05-09T22:44:01.529Z,46.97
2023-05-09T22:47:03.859Z,47.04
2023-05-09T22:50:06.020Z,47.23
2023-05-09T22:53:08.231Z,47.27
2023-05-09T22:56:09.982Z,47.39
2023-05-09T22:59:11.495Z,47.54
2023-05-09T23:02:13.257Z,47.64
2023-05-09T23:05:14.936Z,47.51
2023-05-09T23:08:16.662Z,47.51
2023-05-09T23:11:18.241Z,47.77
2023-05-09T23:14:19.891Z,47.75
2023-05-09T23:17:22.226Z,47.61
2023-05-09T23:20:23.774Z,47.97
2023-05-09T23:23:25.393Z,47.79
2023-05-09T23:26:27.273Z,47.84
2023-05-09T23:29:29.133Z,48.00
2023-05-09T23:32:30.679Z,47.83
2023-05-09T23:35:32.233Z,48.04
2023-05-09T23:38:33.736Z,47.83
2023-05-09T23:41:35.533Z,47.97
2023-05-09T23:44:37.050Z,48.22
2023-05-09T23:47:38.642Z,48.39
2023-05-09T23:50:40.283Z,48.27
2023-05-09T23:53:41.834Z,48.14
2023-05-09T23:56:43.708Z,48.36
2023-05-09T23:59:45.529Z,48.50
